Time;durP1;ratioP1;P1;durP2;ratioP2;P2;SDS_P1;SDS_P2;PMS_P1;PMS_P2;Temp;Humidity;BMP_temperature;BMP_pressure;BME280_temperature;BME280_humidity;BME280_pressure;Samples;Min_cycle;Max_cycle;Signal;HPM_P1;HPM_P2
2023/09/01 00:01:31;;;;;;;109.90;5.93;;;;;;;23.55;50.59;99234.72;7303350;19;130046;-39
2023/09/01 00:03:56;;;;;;;224.10;11.93;;;;;;;23.56;50.97;99231.91;7298879;19;130932;-37
2023/09/01 00:06:22;;;;;;;103.43;5.10;;;;;;;23.54;51.13;99228.63;7302343;19;130014;-39
2023/09/01 00:08:47;;;;;;;91.30;4.83;;;;;;;23.55;51.18;99237.34;7302987;19;129715;-40
2023/09/01 00:11:13;;;;;;;92.43;4.67;;;;;;;23.55;50.83;99232.09;7297542;19;130841;-38
2023/09/01 00:13:38;;;;;;;140.90;7.10;;;;;;;23.55;50.86;99225.00;7303274;19;129493;-37
2023/09/01 00:16:04;;;;;;;50.37;3.00;;;;;;;23.56;50.57;99231.91;7300289;19;128961;-39
2023/09/01 00:18:30;;;;;;;99.27;5.00;;;;;;;23.57;50.40;99227.50;7302674;19;129821;-39
2023/09/01 00:21:00;;;;;;;77.67;4.00;;;;;;;23.46;50.95;99207.63;7305043;19;129208;-39
2023/09/01 00:23:26;;;;;;;136.23;6.53;;;;;;;23.56;50.50;99216.19;7304797;19;129568;-38
2023/09/01 00:25:52;;;;;;;128.03;6.67;;;;;;;23.54;50.60;99226.00;7300947;19;129569;-39
2023/09/01 00:28:18;;;;;;;;;;;;;;;23.56;51.86;99225.84;7302202;19;130399;-39
2023/09/01 00:30:50;;;;;;;72.87;3.97;;;;;;;23.48;51.74;99216.16;7304878;19;128884;-39
2023/09/01 00:33:15;;;;;;;118.70;5.82;;;;;;;23.53;51.25;99224.38;7304248;19;128919;-40
2023/09/01 00:35:41;;;;;;;125.80;5.97;;;;;;;23.54;50.61;99233.88;7297696;19;130010;-40
2023/09/01 00:38:06;;;;;;;84.63;4.53;;;;;;;23.54;50.29;99227.78;7300809;19;131420;-39
2023/09/01 00:40:31;;;;;;;84.10;4.77;;;;;;;23.52;50.33;99227.16;7298277;19;130291;-38
2023/09/01 00:42:57;;;;;;;145.07;6.93;;;;;;;23.53;51.01;99221.75;7304417;19;129694;-39
2023/09/01 00:45:22;;;;;;;92.13;4.80;;;;;;;23.54;50.24;99223.38;7303468;19;129996;-40
2023/09/01 00:47:47;;;;;;;125.23;6.17;;;;;;;23.56;50.99;99215.34;7294111;19;129699;-36
2023/09/01 00:50:12;;;;;;;59.20;3.63;;;;;;;23.57;50.26;99217.00;7303911;19;129276;-38
2023/09/01 00:52:38;;;;;;;123.25;6.05;;;;;;;23.55;50.67;99214.50;7303798;19;129454;-36
2023/09/01 00:55:04;;;;;;;115.93;5.90;;;;;;;23.56;50.44;99210.94;7295852;19;129346;-38
2023/09/01 00:57:29;;;;;;;93.40;5.00;;;;;;;23.55;50.50;99213.72;7300246;19;129812;-39
2023/09/01 00:59:55;;;;;;;107.87;5.77;;;;;;;23.55;51.18;99206.63;7298520;19;131089;-39
2023/09/01 01:02:20;;;;;;;137.50;6.83;;;;;;;23.53;50.90;99208.63;7302837;19;129664;-39
2023/09/01 01:04:45;;;;;;;75.33;4.20;;;;;;;23.53;51.02;99202.56;7302316;19;130529;-39
2023/09/01 01:07:34;;;;;;;86.03;4.50;;;;;;;23.52;51.74;99214.84;7301154;19;129148;-38
2023/09/01 01:10:27;;;;;;;101.28;5.45;;;;;;;23.51;52.72;99212.38;7302300;19;130312;-40
2023/09/01 01:13:00;;;;;;;89.93;4.93;;;;;;;23.50;51.76;99216.00;7302801;19;129729;-38
2023/09/01 01:15:27;;;;;;;96.95;5.28;;;;;;;23.52;50.51;99209.59;7299094;19;129182;-39
2023/09/01 01:17:55;;;;;;;144.20;7.10;;;;;;;23.45;50.19;99192.88;7300221;19;130426;-36
2023/09/01 01:20:20;;;;;;;96.90;5.43;;;;;;;23.54;51.13;99207.63;7304138;19;129675;-38
2023/09/01 01:22:51;;;;;;;77.83;4.17;;;;;;;23.53;51.26;99205.19;7303404;19;129725;-40
2023/09/01 01:25:17;;;;;;;80.35;4.10;;;;;;;23.56;50.42;99204.84;7297956;19;130532;-37
2023/09/01 01:27:43;;;;;;;127.43;6.37;;;;;;;23.55;50.39;99195.34;7300699;19;130673;-37
2023/09/01 01:30:13;;;;;;;90.27;4.60;;;;;;;23.53;50.46;99198.13;7302656;19;129478;-37
2023/09/01 01:32:39;;;;;;;96.60;5.07;;;;;;;23.43;50.78;99186.97;7309301;19;130231;-36
2023/09/01 01:35:38;;;;;;;91.93;4.87;;;;;;;23.46;51.68;99194.50;7306735;19;129692;-39
2023/09/01 01:38:22;;;;;;;82.88;4.43;;;;;;;23.44;51.21;99185.97;7307312;19;129698;-39
2023/09/01 01:40:50;;;;;;;86.50;4.68;;;;;;;23.55;50.72;99203.22;7308529;19;129967;-36
2023/09/01 01:43:23;;;;;;;129.85;6.78;;;;;;;23.54;51.62;99207.63;7309136;19;129507;-39
2023/09/01 01:45:49;;;;;;;111.25;5.65;;;;;;;23.57;50.25;99207.31;7306879;19;129556;-39
2023/09/01 01:48:14;;;;;;;95.07;5.03;;;;;;;23.54;50.35;99212.88;7308132;19;129923;-37
2023/09/01 01:50:41;;;;;;;67.47;3.90;;;;;;;23.53;50.63;99216.50;7310242;19;130042;-39
2023/09/01 01:53:07;;;;;;;87.22;4.60;;;;;;;23.55;50.17;99217.13;7309184;19;129735;-37
2023/09/01 01:55:33;;;;;;;148.73;7.00;;;;;;;23.54;50.07;99207.63;7300064;19;130381;-34
2023/09/01 01:57:58;;;;;;;100.00;5.13;;;;;;;23.54;50.45;99218.13;7305041;19;131548;-38
2023/09/01 02:00:26;;;;;;;96.15;5.18;;;;;;;23.53;50.19;99215.66;7307381;19;129951;-38
2023/09/01 02:02:52;;;;;;;76.80;4.05;;;;;;;23.55;50.03;99216.34;7307658;19;129664;-38
2023/09/01 02:05:17;;;;;;;141.07;6.80;;;;;;;23.53;50.41;99213.88;7304906;19;130268;-39
2023/09/01 02:07:43;;;;;;;74.18;4.47;;;;;;;23.53;50.22;99210.41;7306865;19;130158;-37
2023/09/01 02:10:08;;;;;;;93.33;4.93;;;;;;;23.53;50.31;99215.66;7305599;19;129460;-35
2023/09/01 02:12:34;;;;;;;91.43;5.07;;;;;;;23.50;50.37;99211.59;7307021;19;129292;-40
2023/09/01 02:15:00;;;;;;;137.65;7.03;;;;;;;23.52;50.20;99203.53;7305129;19;129416;-38
2023/09/01 02:17:25;;;;;;;57.00;3.40;;;;;;;23.52;50.02;99199.09;7305434;19;132057;-40
2023/09/01 02:19:51;;;;;;;94.57;4.77;;;;;;;23.51;50.34;99207.97;7308108;19;129423;-37
2023/09/01 02:22:16;;;;;;;136.70;7.03;;;;;;;23.54;50.65;99206.81;7307581;19;129439;-40
2023/09/01 02:24:42;;;;;;;172.80;8.83;;;;;;;23.53;49.76;99213.03;7304673;19;131839;-39
2023/09/01 02:27:07;;;;;;;79.33;3.90;;;;;;;23.53;50.46;99211.25;7305965;19;130637;-38
2023/09/01 02:29:32;;;;;;;79.43;4.38;;;;;;;23.54;50.65;99214.69;7307028;19;129773;-38
2023/09/01 02:31:58;;;;;;;112.67;5.67;;;;;;;23.52;50.02;99214.03;7307761;19;130235;-39
2023/09/01 02:34:23;;;;;;;108.53;5.53;;;;;;;23.52;49.98;99220.09;7306485;19;130144;-38
2023/09/01 02:36:48;;;;;;;68.63;3.87;;;;;;;23.42;49.89;99203.66;7305976;19;129646;-39
2023/09/01 02:39:14;;;;;;;116.07;5.83;;;;;;;23.51;50.19;99221.09;7306580;19;129049;-39
2023/09/01 02:41:39;;;;;;;132.73;6.20;;;;;;;23.51;50.43;99228.94;7305007;19;129138;-38
2023/09/01 02:44:05;;;;;;;162.17;9.60;;;;;;;23.51;49.79;99222.88;7306679;19;130163;-39
2023/09/01 02:46:30;;;;;;;84.83;4.60;;;;;;;23.50;50.30;99229.94;7306532;19;129708;-39
2023/09/01 02:48:56;;;;;;;85.17;4.37;;;;;;;23.51;50.09;99217.63;7307417;19;129337;-37
2023/09/01 02:51:22;;;;;;;130.23;6.60;;;;;;;23.48;50.17;99223.19;7306226;19;130108;-38
2023/09/01 02:53:48;;;;;;;102.80;5.40;;;;;;;23.50;50.15;99216.81;7306815;19;130271;-36
2023/09/01 02:56:13;;;;;;;79.40;4.30;;;;;;;23.48;49.57;99207.47;7301703;19;129634;-39
2023/09/01 02:58:38;;;;;;;90.13;4.75;;;;;;;23.51;50.20;99215.84;7305971;19;129918;-37
2023/09/01 03:01:11;;;;;;;115.90;5.72;;;;;;;23.49;50.74;99225.66;7305820;19;129773;-40
2023/09/01 03:03:38;;;;;;;84.50;4.53;;;;;;;23.49;49.56;99220.41;7306123;19;130388;-35
2023/09/01 03:06:05;;;;;;;97.18;5.20;;;;;;;23.45;50.23;99218.28;7304198;19;130525;-40
2023/09/01 03:08:31;;;;;;;104.45;5.55;;;;;;;23.48;49.94;99218.78;7304822;19;129116;-38
2023/09/01 03:10:56;;;;;;;124.23;6.23;;;;;;;23.50;49.38;99232.56;7306365;19;129733;-39
2023/09/01 03:13:22;;;;;;;89.77;4.93;;;;;;;23.50;49.95;99226.50;7306048;19;129631;-37
2023/09/01 03:15:47;;;;;;;89.70;4.80;;;;;;;23.50;49.46;99229.94;7302727;19;130093;-38
2023/09/01 03:18:13;;;;;;;87.43;4.57;;;;;;;23.49;49.75;99220.41;7303961;19;129416;-37
2023/09/01 03:20:40;;;;;;;143.30;7.18;;;;;;;23.44;49.53;99214.81;7305729;19;129798;-36
2023/09/01 03:23:05;;;;;;;;;;;;;;;23.48;50.85;99221.41;7306082;19;131133;-39
2023/09/01 03:25:31;;;;;;;87.37;4.73;;;;;;;23.49;50.08;99216.97;7303642;19;129777;-37
2023/09/01 03:27:56;;;;;;;75.57;4.23;;;;;;;23.47;50.08;99216.31;7303940;19;130361;-39
2023/09/01 03:30:22;;;;;;;133.10;7.13;;;;;;;23.48;49.97;99220.56;7305186;19;129340;-39
2023/09/01 03:32:47;;;;;;;113.73;6.57;;;;;;;23.46;49.44;99212.88;7305740;19;130082;-36
2023/09/01 03:35:12;;;;;;;76.80;4.57;;;;;;;23.46;50.00;99212.03;7303731;19;129758;-39
2023/09/01 03:37:38;;;;;;;124.50;6.63;;;;;;;23.47;49.76;99211.88;7304117;19;130151;-35
2023/09/01 03:40:09;;;;;;;146.20;8.17;;;;;;;23.47;49.64;99217.13;7306342;19;129968;-37
2023/09/01 03:42:34;;;;;;;57.03;3.90;;;;;;;23.47;49.78;99219.75;7306597;19;130656;-39
2023/09/01 03:45:00;;;;;;;73.63;4.27;;;;;;;23.48;48.97;99229.28;7302875;19;130332;-39
2023/09/01 03:47:25;;;;;;;82.27;4.63;;;;;;;23.38;49.16;99212.84;7303745;19;129277;-39
2023/09/01 03:49:51;;;;;;;144.80;7.23;;;;;;;23.47;49.58;99227.63;7306407;19;129415;-39
2023/09/01 03:52:16;;;;;;;66.87;4.27;;;;;;;23.48;49.68;99228.44;7305849;19;129492;-39
2023/09/01 03:54:41;;;;;;;91.50;5.70;;;;;;;23.47;49.08;99230.25;7300603;19;130944;-40
2023/09/01 03:57:08;;;;;;;115.20;5.93;;;;;;;23.47;49.42;99222.38;7295077;19;129770;-39
2023/09/01 03:59:34;;;;;;;132.38;7.07;;;;;;;23.49;48.79;99228.28;7302434;19;128954;-37
2023/09/01 04:01:59;;;;;;;134.37;7.17;;;;;;;23.45;49.36;99229.59;7299326;19;130174;-39
2023/09/01 04:04:24;;;;;;;140.53;7.47;;;;;;;23.47;48.77;99227.63;7298883;19;129940;-38
2023/09/01 04:06:50;;;;;;;149.03;7.80;;;;;;;23.47;49.49;99232.88;7301837;19;129287;-38
2023/09/01 04:09:15;;;;;;;122.67;6.40;;;;;;;23.46;49.13;99235.66;7305343;19;129467;-38
2023/09/01 04:11:40;;;;;;;98.27;5.53;;;;;;;23.46;49.27;99231.25;7302083;19;130614;-36
2023/09/01 04:14:08;;;;;;;112.88;6.28;;;;;;;23.45;48.79;99229.59;7302976;19;130486;-39
2023/09/01 04:16:34;;;;;;;146.02;7.40;;;;;;;23.47;48.88;99232.06;7301327;19;129552;-39
2023/09/01 04:18:59;;;;;;;91.43;5.47;;;;;;;23.46;49.38;99235.66;7304647;19;129566;-40
2023/09/01 04:21:25;;;;;;;122.87;6.87;;;;;;;23.47;49.25;99227.63;7303786;19;129913;-38
2023/09/01 04:23:50;;;;;;;153.43;8.67;;;;;;;23.46;49.18;99236.47;7301386;19;130434;-36
2023/09/01 04:26:16;;;;;;;141.37;7.23;;;;;;;23.39;49.13;99224.97;7303200;19;129386;-37
2023/09/01 04:28:41;;;;;;;83.33;4.97;;;;;;;23.46;49.28;99236.47;7305056;19;129279;-37
2023/09/01 04:31:27;;;;;;;83.60;5.00;;;;;;;23.47;50.96;99243.38;7302363;19;129433;-39
2023/09/01 04:33:52;;;;;;;183.93;10.25;;;;;;;23.46;49.61;99238.28;7301832;19;130402;-38
2023/09/01 04:36:17;;;;;;;78.57;4.60;;;;;;;23.47;49.47;99242.56;7302422;19;129048;-37
2023/09/01 04:38:43;;;;;;;128.63;6.97;;;;;;;23.44;48.59;99243.69;7302396;19;130017;-38
2023/09/01 04:41:08;;;;;;;104.05;6.10;;;;;;;23.43;49.00;99249.94;7300755;19;129272;-36
2023/09/01 04:43:34;;;;;;;77.70;5.00;;;;;;;23.43;48.95;99255.19;7303833;19;129493;-37
2023/09/01 04:45:59;;;;;;;107.07;6.37;;;;;;;23.43;48.26;99247.31;7300620;19;129358;-39
2023/09/01 04:48:26;;;;;;;129.47;7.67;;;;;;;23.42;48.24;99256.13;7296050;19;130010;-37
2023/09/01 04:50:51;;;;;;;114.03;6.43;;;;;;;23.43;48.85;99254.34;7302625;19;130309;-39
2023/09/01 04:53:17;;;;;;;179.23;10.13;;;;;;;23.43;48.98;99257.81;7288550;19;130176;-35
2023/09/01 04:55:42;;;;;;;137.83;7.43;;;;;;;23.42;48.95;99258.75;7290538;19;129845;-39
2023/09/01 04:58:08;;;;;;;98.13;5.55;;;;;;;23.45;48.63;99249.75;7300719;19;129490;-33
2023/09/01 05:00:34;;;;;;;90.53;5.50;;;;;;;23.42;49.22;99248.25;7300204;19;129167;-38
2023/09/01 05:03:00;;;;;;;;;;;;;;;23.44;50.51;99248.94;7299570;19;129438;-38
2023/09/01 05:05:25;;;;;;;85.03;5.22;;;;;;;23.44;49.26;99248.94;7298799;19;129810;-38
2023/09/01 05:07:50;;;;;;;100.55;5.60;;;;;;;23.44;49.08;99248.09;7301727;19;129495;-38
2023/09/01 05:10:16;;;;;;;94.00;5.47;;;;;;;23.33;49.40;99227.41;7296570;19;131039;-38
2023/09/01 05:12:41;;;;;;;140.90;8.33;;;;;;;23.42;49.54;99243.03;7291108;19;130639;-38
2023/09/01 05:15:07;;;;;;;149.83;8.20;;;;;;;23.44;49.38;99251.56;7295541;19;131282;-35
2023/09/01 05:17:33;;;;;;;103.60;6.33;;;;;;;23.46;49.10;99251.41;7300305;19;129502;-36
2023/09/01 05:19:58;;;;;;;122.10;6.70;;;;;;;23.43;49.27;99254.34;7294299;19;129110;-39
2023/09/01 05:22:24;;;;;;;98.50;6.70;;;;;;;23.44;49.04;99255.97;7301123;19;129324;-38
2023/09/01 05:24:50;;;;;;;128.13;7.47;;;;;;;23.44;49.76;99254.19;7297611;19;129744;-37
2023/09/01 05:27:19;;;;;;;70.67;5.70;;;;;;;23.45;49.47;99247.13;7300161;19;129044;-37
2023/09/01 05:29:45;;;;;;;106.78;7.68;;;;;;;23.46;50.00;99252.22;7299402;19;130261;-37
2023/09/01 05:32:11;;;;;;;123.97;9.57;;;;;;;23.46;49.20;99254.03;7301801;19;129452;-39
2023/09/01 05:34:37;;;;;;;146.03;9.93;;;;;;;23.47;49.86;99251.22;7300650;19;129906;-37
2023/09/01 05:37:02;;;;;;;88.93;7.22;;;;;;;23.45;49.37;99247.97;7299371;19;129789;-39
2023/09/01 05:39:28;;;;;;;67.22;6.75;;;;;;;23.48;49.94;99250.28;7300261;19;130116;-37
2023/09/01 05:41:53;;;;;;;93.10;7.23;;;;;;;23.45;49.47;99253.22;7296546;19;130597;-35
2023/09/01 05:44:20;;;;;;;129.80;8.57;;;;;;;23.45;50.08;99250.59;7295297;19;128964;-37
2023/09/01 05:46:45;;;;;;;167.40;10.55;;;;;;;23.48;49.74;99260.78;7288875;19;130379;-36
2023/09/01 05:49:11;;;;;;;163.47;10.00;;;;;;;23.47;50.22;99268.81;7291092;19;130308;-38
2023/09/01 05:51:36;;;;;;;77.17;5.80;;;;;;;23.45;49.52;99268.97;7299627;19;130267;-36
2023/09/01 05:54:02;;;;;;;243.13;15.10;;;;;;;23.47;50.09;99269.59;7289316;19;130669;-35
2023/09/01 05:56:27;;;;;;;186.32;10.10;;;;;;;23.47;49.72;99277.47;7288537;19;130972;-36
2023/09/01 05:58:52;;;;;;;114.37;7.07;;;;;;;23.45;50.24;99276.00;7291661;19;129985;-37
2023/09/01 06:01:18;;;;;;;133.70;7.30;;;;;;;23.44;50.31;99275.16;7297912;19;130950;-37
2023/09/01 06:03:43;;;;;;;159.33;9.67;;;;;;;23.46;49.96;99277.63;7297000;19;129195;-36
2023/09/01 06:06:09;;;;;;;90.60;6.03;;;;;;;23.48;50.51;99281.75;7297182;19;130282;-36
2023/09/01 06:08:35;;;;;;;85.93;5.63;;;;;;;23.45;50.04;99270.75;7301123;19;129495;-39
2023/09/01 06:11:05;;;;;;;123.32;7.18;;;;;;;23.44;50.90;99277.78;7297801;19;131201;-39
2023/09/01 06:13:31;;;;;;;80.30;5.22;;;;;;;23.43;50.69;99273.53;7300623;19;129477;-34
2023/09/01 06:15:56;;;;;;;171.43;9.63;;;;;;;23.33;50.67;99259.72;7293242;19;129738;-37
2023/09/01 06:18:22;;;;;;;87.43;5.47;;;;;;;23.47;50.92;99276.66;7301389;19;129499;-36
2023/09/01 06:20:47;;;;;;;132.97;7.30;;;;;;;23.45;50.80;99282.09;7305948;19;131359;-36
2023/09/01 06:23:12;;;;;;;94.70;5.93;;;;;;;23.43;50.76;99284.03;7304551;19;129061;-36
2023/09/01 06:25:38;;;;;;;217.03;12.73;;;;;;;23.46;51.12;99294.22;7300977;19;131195;-36
2023/09/01 06:28:03;;;;;;;107.97;7.13;;;;;;;23.43;51.52;99289.28;7301657;19;129507;-35
2023/09/01 06:30:29;;;;;;;171.13;9.23;;;;;;;23.38;50.70;99275.81;7307525;19;129599;-36
2023/09/01 06:32:54;;;;;;;121.07;6.63;;;;;;;23.43;50.94;99284.03;7308866;19;129173;-38
2023/09/01 06:35:19;;;;;;;97.15;5.97;;;;;;;23.45;51.61;99287.34;7303762;19;129929;-36
2023/09/01 06:37:44;;;;;;;94.07;5.93;;;;;;;23.46;51.48;99296.84;7303246;19;130254;-37
2023/09/01 06:40:10;;;;;;;120.23;7.10;;;;;;;23.33;51.28;99270.22;7306081;19;129702;-37
2023/09/01 06:42:35;;;;;;;133.07;7.60;;;;;;;23.45;51.32;99289.94;7304596;19;129270;-37
2023/09/01 06:45:01;;;;;;;84.77;5.17;;;;;;;23.44;51.10;99296.16;7303196;19;129828;-36
2023/09/01 06:47:26;;;;;;;121.57;7.03;;;;;;;23.37;51.24;99278.59;7305264;19;130476;-35
2023/09/01 06:49:52;;;;;;;127.43;6.87;;;;;;;23.45;51.59;99292.56;7306652;19;130251;-36
2023/09/01 06:52:18;;;;;;;99.77;6.17;;;;;;;23.45;51.30;99292.56;7307680;19;130021;-36
2023/09/01 06:54:43;;;;;;;136.23;7.87;;;;;;;23.31;51.84;99269.56;7304288;19;129748;-37
2023/09/01 06:57:08;;;;;;;128.33;7.27;;;;;;;23.44;51.65;99290.09;7304257;19;129776;-35
2023/09/01 06:59:33;;;;;;;91.07;5.67;;;;;;;23.43;51.42;99286.66;7305664;19;130214;-37
2023/09/01 07:01:59;;;;;;;91.93;5.93;;;;;;;23.42;51.87;99285.00;7304822;19;129791;-36
2023/09/01 07:04:25;;;;;;;96.80;5.90;;;;;;;23.42;51.65;99282.38;7307020;19;129166;-37
2023/09/01 07:06:50;;;;;;;112.63;6.28;;;;;;;23.43;52.04;99288.44;7307555;19;130125;-37
2023/09/01 07:09:16;;;;;;;104.55;6.13;;;;;;;23.34;52.57;99276.31;7309312;19;129712;-36
2023/09/01 07:11:41;;;;;;;80.37;5.20;;;;;;;23.42;52.36;99298.13;7305700;19;129122;-39
2023/09/01 07:14:06;;;;;;;128.93;6.87;;;;;;;23.40;52.38;99294.84;7302202;19;129773;-37
2023/09/01 07:16:32;;;;;;;140.27;7.67;;;;;;;23.42;52.63;99297.31;7303547;19;130116;-37
2023/09/01 07:18:57;;;;;;;82.87;4.87;;;;;;;23.41;51.97;99301.72;7306588;19;129108;-39
2023/09/01 07:21:22;;;;;;;154.57;8.38;;;;;;;23.39;52.42;99311.56;7304605;19;129645;-38
2023/09/01 07:23:49;;;;;;;131.25;7.40;;;;;;;23.39;52.69;99306.31;7303421;19;129636;-37
2023/09/01 07:26:15;;;;;;;111.78;6.22;;;;;;;23.40;52.57;99305.34;7304689;19;130328;-38
2023/09/01 07:28:40;;;;;;;89.60;5.43;;;;;;;23.40;52.88;99310.59;7303530;19;130443;-37
2023/09/01 07:31:12;;;;;;;85.47;5.30;;;;;;;23.29;53.38;99303.00;7304713;19;129233;-36
2023/09/01 07:33:41;;;;;;;169.10;9.15;;;;;;;23.40;52.39;99315.84;7298618;19;130418;-37
2023/09/01 07:36:10;;;;;;;135.60;7.15;;;;;;;23.40;52.35;99321.09;7302035;19;130850;-36
2023/09/01 07:38:39;;;;;;;94.22;5.47;;;;;;;23.41;52.81;99306.16;7304865;19;129370;-37
2023/09/01 07:41:04;;;;;;;95.13;6.30;;;;;;;23.41;52.93;99317.47;7304393;19;129352;-37
2023/09/01 07:43:30;;;;;;;151.87;8.57;;;;;;;23.41;53.05;99314.84;7301362;19;129533;-34
2023/09/01 07:45:56;;;;;;;136.00;7.23;;;;;;;23.41;52.98;99311.41;7304559;19;129183;-36
2023/09/01 07:48:21;;;;;;;93.77;5.43;;;;;;;23.42;52.41;99305.97;7304192;19;129179;-35
2023/09/01 07:50:46;;;;;;;94.10;5.33;;;;;;;23.41;52.54;99312.22;7306044;19;129410;-38
2023/09/01 07:53:12;;;;;;;151.53;8.67;;;;;;;23.39;52.97;99314.19;7299020;19;130664;-37
2023/09/01 07:55:37;;;;;;;154.40;8.77;;;;;;;23.43;53.07;99320.78;7290972;19;131914;-38
2023/09/01 07:58:03;;;;;;;160.18;8.85;;;;;;;23.41;52.98;99317.47;7290043;19;131799;-38
2023/09/01 08:00:28;;;;;;;132.97;7.27;;;;;;;23.41;53.10;99316.63;7292807;19;132124;-37
2023/09/01 08:02:55;;;;;;;160.93;8.65;;;;;;;23.39;53.23;99314.19;7292079;19;130038;-38
2023/09/01 08:05:21;;;;;;;181.50;9.93;;;;;;;23.40;52.83;99315.84;7290266;19;132090;-35
2023/09/01 08:07:49;;;;;;;168.67;9.33;;;;;;;23.39;53.34;99308.13;7290641;19;130580;-38
2023/09/01 08:10:15;;;;;;;46.78;3.25;;;;;;;23.39;52.61;99310.75;7297593;19;130519;-38
2023/09/01 08:12:40;;;;;;;124.13;6.83;;;;;;;23.42;53.15;99313.06;7304507;19;129711;-39
2023/09/01 08:15:06;;;;;;;128.77;6.50;;;;;;;23.42;53.48;99311.22;7302496;19;129391;-38
2023/09/01 08:17:33;;;;;;;115.73;6.27;;;;;;;23.42;53.44;99316.47;7302724;19;130391;-39
2023/09/01 08:19:58;;;;;;;99.10;6.03;;;;;;;23.43;53.56;99320.78;7301734;19;129433;-38
2023/09/01 08:22:24;;;;;;;112.00;6.77;;;;;;;23.43;53.46;99318.16;7303817;19;129560;-39
2023/09/01 08:24:49;;;;;;;101.60;5.68;;;;;;;23.43;53.53;99315.53;7301715;19;130154;-40
2023/09/01 08:27:14;;;;;;;92.07;5.07;;;;;;;23.43;53.03;99318.16;7302003;19;131293;-39
2023/09/01 08:29:41;;;;;;;78.20;4.60;;;;;;;23.39;52.98;99316.81;7304226;19;129146;-36
2023/09/01 08:32:07;;;;;;;106.78;6.45;;;;;;;23.40;53.29;99322.88;7303884;19;129112;-42
2023/09/01 08:34:32;;;;;;;163.63;8.53;;;;;;;23.39;52.98;99319.44;7300351;19;130203;-37
2023/09/01 08:36:58;;;;;;;87.83;5.10;;;;;;;23.31;53.04;99301.03;7300781;19;129197;-37
2023/09/01 08:39:24;;;;;;;108.20;6.10;;;;;;;23.41;53.44;99312.22;7302598;19;129380;-37
2023/09/01 08:41:53;;;;;;;143.10;7.37;;;;;;;23.40;53.49;99315.84;7299799;19;128777;-36
2023/09/01 08:44:23;;;;;;;98.72;5.50;;;;;;;23.40;53.74;99321.09;7300931;19;130297;-37
2023/09/01 08:46:52;;;;;;;88.70;5.03;;;;;;;23.41;53.12;99311.41;7301189;19;130747;-37
2023/09/01 08:49:18;;;;;;;69.35;4.40;;;;;;;23.43;53.76;99319.94;7303401;19;129067;-36
2023/09/01 08:51:46;;;;;;;147.37;7.87;;;;;;;23.43;53.54;99322.56;7302802;19;129933;-37
2023/09/01 08:54:14;;;;;;;154.70;8.15;;;;;;;23.40;53.56;99309.75;7299740;19;130698;-36
2023/09/01 08:56:39;;;;;;;82.80;4.95;;;;;;;23.40;53.77;99310.59;7300143;19;130526;-37
2023/09/01 08:59:04;;;;;;;90.17;4.90;;;;;;;23.39;53.74;99314.19;7303210;19;131388;-36
2023/09/01 09:01:31;;;;;;;79.32;4.57;;;;;;;23.39;54.06;99311.56;7298282;19;131100;-36
2023/09/01 09:03:57;;;;;;;186.60;11.30;;;;;;;23.39;53.74;99308.94;7296975;19;130291;-36
2023/09/01 09:06:37;;;;;;;90.88;5.07;;;;;;;23.38;54.36;99302.06;7302635;19;129463;-37
2023/09/01 09:09:12;;;;;;;101.20;5.75;;;;;;;23.41;53.50;99316.63;7302695;19;130206;-36
2023/09/01 09:11:38;;;;;;;111.70;6.20;;;;;;;23.39;53.38;99308.94;7299787;19;129488;-37
2023/09/01 09:14:04;;;;;;;129.88;8.15;;;;;;;23.41;53.69;99301.72;7299849;19;130619;-37
2023/09/01 09:16:29;;;;;;;111.23;6.03;;;;;;;23.40;53.22;99307.97;7301537;19;130337;-37
2023/09/01 09:18:55;;;;;;;81.27;4.60;;;;;;;23.40;53.31;99304.53;7300473;19;129538;-36
2023/09/01 09:21:25;;;;;;;99.60;5.57;;;;;;;23.41;54.16;99303.53;7302589;19;129367;-37
2023/09/01 09:23:52;;;;;;;118.20;6.72;;;;;;;23.39;53.46;99303.69;7298326;19;130236;-37
2023/09/01 09:26:24;;;;;;;168.77;9.55;;;;;;;23.38;54.47;99302.06;7300006;19;131276;-37
2023/09/01 09:28:49;;;;;;;115.03;6.38;;;;;;;23.40;54.03;99304.53;7300317;19;130614;-36
2023/09/01 09:31:15;;;;;;;98.07;5.43;;;;;;;23.41;53.71;99301.72;7300444;19;129480;-36
2023/09/01 09:33:42;;;;;;;74.40;4.45;;;;;;;23.42;53.95;99299.94;7300763;19;129341;-36
2023/09/01 09:36:07;;;;;;;;;;;;;;;23.41;54.68;99306.97;7299484;19;129629;-36
2023/09/01 09:38:43;;;;;;;139.97;7.53;;;;;;;23.40;54.77;99310.59;7297510;19;130886;-37
2023/09/01 09:41:09;;;;;;;98.57;5.43;;;;;;;23.29;53.80;99284.63;7301372;19;129406;-37
2023/09/01 09:43:49;;;;;;;89.57;5.37;;;;;;;23.39;54.90;99306.31;7300228;19;130014;-36
2023/09/01 09:46:15;;;;;;;119.22;6.63;;;;;;;23.39;54.15;99303.69;7301251;19;129995;-37
2023/09/01 09:48:41;;;;;;;126.25;6.45;;;;;;;23.40;53.99;99312.38;7301381;19;129482;-37
2023/09/01 09:51:08;;;;;;;92.33;5.40;;;;;;;23.41;54.27;99316.63;7301256;19;129953;-36
2023/09/01 09:53:38;;;;;;;94.00;5.55;;;;;;;23.30;53.37;99298.56;7303910;19;130627;-36
2023/09/01 09:56:30;;;;;;;99.50;5.88;;;;;;;23.40;55.29;99309.75;7294971;19;130577;-37
2023/09/01 09:59:01;;;;;;;143.75;7.95;;;;;;;23.40;53.86;99323.72;7296521;19;129871;-36
2023/09/01 10:01:29;;;;;;;200.00;10.70;;;;;;;23.39;53.80;99308.13;7294874;19;130648;-37
2023/09/01 10:03:56;;;;;;;206.35;12.20;;;;;;;23.39;54.09;99306.31;7292385;19;130287;-37
2023/09/01 10:06:23;;;;;;;104.15;5.82;;;;;;;23.40;54.19;99305.34;7296267;19;131654;-37
2023/09/01 10:08:51;;;;;;;140.40;7.93;;;;;;;23.41;53.71;99295.66;7294643;19;131096;-36
2023/09/01 10:11:17;;;;;;;207.07;10.82;;;;;;;23.40;53.73;99291.41;7295384;19;129203;-36
2023/09/01 10:13:47;;;;;;;165.03;8.53;;;;;;;23.37;53.92;99289.09;7298589;19;131107;-38
2023/09/01 10:16:13;;;;;;;155.27;8.40;;;;;;;23.42;53.41;99302.56;7295351;19;131712;-36
2023/09/01 10:18:43;;;;;;;108.25;5.95;;;;;;;23.40;55.02;99294.84;7301078;19;130372;-37
2023/09/01 10:21:09;;;;;;;98.68;5.40;;;;;;;23.40;53.90;99288.78;7307055;19;129861;-37
2023/09/01 10:23:34;;;;;;;136.03;6.80;;;;;;;23.39;54.01;99293.19;7306381;19;130226;-36
2023/09/01 10:26:28;;;;;;;126.77;6.73;;;;;;;23.39;54.93;99306.31;7304123;19;129467;-37
2023/09/01 10:29:06;;;;;;;109.35;6.00;;;;;;;23.40;54.03;99296.66;7308457;19;130328;-37
2023/09/01 10:31:33;;;;;;;88.72;5.20;;;;;;;23.39;53.81;99305.50;7307286;19;129462;-36
2023/09/01 10:34:10;;;;;;;144.48;8.90;;;;;;;23.38;55.02;99306.47;7302446;19;130227;-36
2023/09/01 10:36:37;;;;;;;98.50;5.50;;;;;;;23.41;53.55;99306.16;7301124;19;130276;-36
2023/09/01 10:39:23;;;;;;;105.20;5.63;;;;;;;23.38;55.50;99302.06;7303794;19;129610;-36
2023/09/01 10:42:00;;;;;;;152.38;7.93;;;;;;;23.39;54.61;99290.56;7304202;19;129461;-36
2023/09/01 10:44:40;;;;;;;113.68;5.95;;;;;;;23.36;55.57;99288.25;7303856;19;130389;-36
2023/09/01 10:47:30;;;;;;;146.25;7.88;;;;;;;23.38;55.52;99291.56;7304288;19;130817;-35
2023/09/01 10:49:59;;;;;;;120.07;6.72;;;;;;;23.39;54.42;99290.56;7306066;19;129441;-36
2023/09/01 10:52:28;;;;;;;117.30;6.75;;;;;;;23.38;54.39;99272.38;7306090;19;129878;-36
2023/09/01 10:54:59;;;;;;;126.32;6.88;;;;;;;23.36;54.85;99283.03;7301429;19;130795;-36
2023/09/01 10:57:45;;;;;;;140.02;7.55;;;;;;;23.38;55.57;99286.31;7298269;19;129693;-37
2023/09/01 11:00:33;;;;;;;132.20;6.88;;;;;;;23.39;55.30;99272.19;7306070;19;130896;-36
2023/09/01 11:03:25;;;;;;;85.30;4.85;;;;;;;23.38;55.53;99290.72;7303321;19;130386;-37
2023/09/01 11:06:01;;;;;;;79.28;4.68;;;;;;;23.38;55.20;99296.81;7304752;19;130096;-36
2023/09/01 11:08:27;;;;;;;94.63;5.05;;;;;;;23.37;54.25;99292.53;7299835;19;129860;-37
2023/09/01 11:10:55;;;;;;;136.50;7.30;;;;;;;23.37;54.02;99299.59;7305128;19;129403;-37
2023/09/01 11:13:22;;;;;;;109.25;6.03;;;;;;;23.39;53.95;99293.19;7305253;19;129933;-36
2023/09/01 11:15:48;;;;;;;;;;;;;;;23.38;55.58;99290.72;7302939;19;130132;-36